This is the latest recevied weather packets stored in our database for station/object F4GSP-4. If no packets are shown the sender has not sent any weather packets the latest 10 day(s).
| Time | Temp. | Humidity | Pressure | Rain* | Wind** | Luminosity | Snow |
|---|---|---|---|---|---|---|---|
| 1778007179 | 11.67° C | 53% | 1022.3 hPa | - | - | - | - |
| 1778006278 | 12.78° C | 53% | 1021.8 hPa | - | - | - | - |
| 1778005378 | 13.33° C | 53% | 1021.5 hPa | - | - | - | - |
| 1778004477 | 14.44° C | 53% | 1021.5 hPa | - | - | - | - |
| 1778003577 | 15° C | 53% | 1021.4 hPa | - | - | - | - |
| 1778002677 | 17.78° C | 52% | 1021.5 hPa | - | - | - | - |
| 1778001777 | 21.67° C | 53% | 1021.2 hPa | - | - | - | - |
| 1778000877 | 25.56° C | 55% | 1021.4 hPa | - | - | - | - |
| 1777999976 | 25° C | 56% | 1021.4 hPa | - | - | - | - |
| 1777999076 | 22.22° C | 58% | 1021.7 hPa | - | - | - | - |
| 1777998176 | 20.56° C | 56% | 1021.8 hPa | - | - | - | - |
| 1777997276 | 20.56° C | 60% | 1021.8 hPa | - | - | - | - |
| 1777996376 | 20° C | 55% | 1021.9 hPa | - | - | - | - |
| 1777995476 | 27.22° C | 57% | 1021.4 hPa | - | - | - | - |
| 1777994575 | 28.33° C | 61% | 1021.4 hPa | - | - | - | - |
| 1777993675 | 26.67° C | 62% | 1021.7 hPa | - | - | - | - |
| 1777992775 | 26.11° C | 66% | 1021.9 hPa | - | - | - | - |
| 1777991875 | 19.44° C | 69% | 1022.2 hPa | - | - | - | - |
| 1777990975 | 12.78° C | 65% | 1022.5 hPa | - | - | - | - |
| 1777990074 | 12.78° C | 61% | 1022.7 hPa | - | - | - | - |
| 1777989174 | 14.44° C | 59% | 1022.3 hPa | - | - | - | - |
| 1777988274 | 16.11° C | 59% | 1022.2 hPa | - | - | - | - |
| 1777987374 | 17.78° C | 61% | 1022.3 hPa | - | - | - | - |
| 1777986474 | 18.89° C | 61% | 1022.4 hPa | - | - | - | - |
| 1777985574 | 17.78° C | 63% | 1022.4 hPa | - | - | - | - |
* Rain since midnight (hover to see other rain measurements)
** Current wind speed in m/s (hover to see current wind gust speed)